sensor_id;sensor_type;location;lat;lon;timestamp;pressure;altitude;pressure_sealevel;temperature;humidity
10342;BME280;5216;54.602;18.356;2024-01-30T00:00:47;102883.22;;;6.70;52.83
10342;BME280;5216;54.602;18.356;2024-01-30T00:03:14;102878.13;;;6.64;53.12
10342;BME280;5216;54.602;18.356;2024-01-30T00:05:41;102877.38;;;6.61;53.17
10342;BME280;5216;54.602;18.356;2024-01-30T00:08:08;102879.31;;;6.56;53.00
10342;BME280;5216;54.602;18.356;2024-01-30T00:10:35;102878.59;;;6.53;53.17
10342;BME280;5216;54.602;18.356;2024-01-30T00:13:02;102873.50;;;6.47;53.48
10342;BME280;5216;54.602;18.356;2024-01-30T00:15:29;102880.50;;;6.49;53.75
10342;BME280;5216;54.602;18.356;2024-01-30T00:17:56;102878.75;;;6.48;53.26
10342;BME280;5216;54.602;18.356;2024-01-30T00:20:24;102874.38;;;6.47;53.42
10342;BME280;5216;54.602;18.356;2024-01-30T00:22:50;102868.94;;;6.50;53.65
10342;BME280;5216;54.602;18.356;2024-01-30T00:25:17;102870.69;;;6.51;53.67
10342;BME280;5216;54.602;18.356;2024-01-30T00:27:44;102861.91;;;6.49;53.57
10342;BME280;5216;54.602;18.356;2024-01-30T00:30:11;102859.25;;;6.49;53.65
10342;BME280;5216;54.602;18.356;2024-01-30T00:32:38;102859.44;;;6.45;54.00
10342;BME280;5216;54.602;18.356;2024-01-30T00:35:05;102863.13;;;6.41;53.92
10342;BME280;5216;54.602;18.356;2024-01-30T00:37:32;102862.41;;;6.36;53.49
10342;BME280;5216;54.602;18.356;2024-01-30T00:39:59;102862.72;;;6.27;53.33
10342;BME280;5216;54.602;18.356;2024-01-30T00:42:26;102872.53;;;6.25;54.10
10342;BME280;5216;54.602;18.356;2024-01-30T00:44:53;102870.09;;;6.19;53.42
10342;BME280;5216;54.602;18.356;2024-01-30T00:47:19;102865.19;;;6.09;53.74
10342;BME280;5216;54.602;18.356;2024-01-30T00:49:46;102861.09;;;6.00;54.21
10342;BME280;5216;54.602;18.356;2024-01-30T00:52:13;102861.31;;;5.94;54.54
10342;BME280;5216;54.602;18.356;2024-01-30T00:54:39;102853.34;;;5.94;54.30
10342;BME280;5216;54.602;18.356;2024-01-30T00:57:07;102851.75;;;5.89;54.30
10342;BME280;5216;54.602;18.356;2024-01-30T00:59:34;102866.06;;;5.85;54.33
10342;BME280;5216;54.602;18.356;2024-01-30T01:02:00;102843.41;;;5.75;54.75
10342;BME280;5216;54.602;18.356;2024-01-30T01:04:27;102856.59;;;5.77;54.39
10342;BME280;5216;54.602;18.356;2024-01-30T01:06:54;102859.38;;;5.74;54.61
10342;BME280;5216;54.602;18.356;2024-01-30T01:09:21;102863.84;;;5.72;54.92
10342;BME280;5216;54.602;18.356;2024-01-30T01:11:48;102862.19;;;5.68;54.87
10342;BME280;5216;54.602;18.356;2024-01-30T01:14:15;102849.19;;;5.60;55.27
10342;BME280;5216;54.602;18.356;2024-01-30T01:16:42;102855.16;;;5.67;55.71
10342;BME280;5216;54.602;18.356;2024-01-30T01:19:08;102854.97;;;5.73;55.79
10342;BME280;5216;54.602;18.356;2024-01-30T01:21:35;102855.78;;;5.75;54.96
10342;BME280;5216;54.602;18.356;2024-01-30T01:24:02;102849.75;;;5.70;55.08
10342;BME280;5216;54.602;18.356;2024-01-30T01:26:29;102856.91;;;5.68;54.79
10342;BME280;5216;54.602;18.356;2024-01-30T01:28:56;102865.88;;;5.64;55.36
10342;BME280;5216;54.602;18.356;2024-01-30T01:31:22;102864.25;;;5.60;54.97
10342;BME280;5216;54.602;18.356;2024-01-30T01:33:54;102857.53;;;5.50;55.47
10342;BME280;5216;54.602;18.356;2024-01-30T01:36:21;102865.59;;;5.46;55.65
10342;BME280;5216;54.602;18.356;2024-01-30T01:38:47;102866.59;;;5.43;55.78
10342;BME280;5216;54.602;18.356;2024-01-30T01:41:14;102849.00;;;5.41;56.12
10342;BME280;5216;54.602;18.356;2024-01-30T01:43:41;102854.94;;;5.47;56.11
10342;BME280;5216;54.602;18.356;2024-01-30T01:46:08;102861.00;;;5.52;55.94
10342;BME280;5216;54.602;18.356;2024-01-30T01:48:36;102857.53;;;5.50;55.44
10342;BME280;5216;54.602;18.356;2024-01-30T01:51:04;102849.50;;;5.51;56.23
10342;BME280;5216;54.602;18.356;2024-01-30T01:53:31;102842.56;;;5.47;55.86
10342;BME280;5216;54.602;18.356;2024-01-30T01:55:58;102839.97;;;5.46;55.74
10342;BME280;5216;54.602;18.356;2024-01-30T01:58:26;102839.22;;;5.43;55.61
10342;BME280;5216;54.602;18.356;2024-01-30T02:00:56;102837.56;;;5.39;56.00
10342;BME280;5216;54.602;18.356;2024-01-30T02:03:23;102842.09;;;5.35;56.20
10342;BME280;5216;54.602;18.356;2024-01-30T02:05:50;102838.72;;;5.30;56.04
10342;BME280;5216;54.602;18.356;2024-01-30T02:08:18;102829.94;;;5.28;56.17
10342;BME280;5216;54.602;18.356;2024-01-30T02:10:44;102835.47;;;5.22;56.41
10342;BME280;5216;54.602;18.356;2024-01-30T02:13:11;102828.44;;;5.21;56.29
10342;BME280;5216;54.602;18.356;2024-01-30T02:15:38;102835.53;;;5.21;56.18
10342;BME280;5216;54.602;18.356;2024-01-30T02:18:05;102826.81;;;5.17;56.14
10342;BME280;5216;54.602;18.356;2024-01-30T02:20:34;102840.06;;;5.17;56.74
10342;BME280;5216;54.602;18.356;2024-01-30T02:23:02;102826.19;;;5.10;56.47
10342;BME280;5216;54.602;18.356;2024-01-30T02:25:38;102838.50;;;5.11;56.76
10342;BME280;5216;54.602;18.356;2024-01-30T02:28:05;102836.16;;;5.02;56.54
10342;BME280;5216;54.602;18.356;2024-01-30T02:30:32;102840.66;;;5.00;56.70
10342;BME280;5216;54.602;18.356;2024-01-30T02:32:59;102852.16;;;4.99;56.40
10342;BME280;5216;54.602;18.356;2024-01-30T02:35:26;102830.16;;;4.95;57.08
10342;BME280;5216;54.602;18.356;2024-01-30T02:37:52;102841.59;;;4.97;57.09
10342;BME280;5216;54.602;18.356;2024-01-30T02:40:19;102832.69;;;5.00;57.44
10342;BME280;5216;54.602;18.356;2024-01-30T02:42:46;102832.69;;;5.00;57.23
10342;BME280;5216;54.602;18.356;2024-01-30T02:45:13;102832.63;;;5.01;57.65
10342;BME280;5216;54.602;18.356;2024-01-30T02:47:40;102833.63;;;4.97;57.01
10342;BME280;5216;54.602;18.356;2024-01-30T02:50:07;102834.53;;;4.98;57.11
10342;BME280;5216;54.602;18.356;2024-01-30T02:52:34;102828.41;;;4.96;57.32
10342;BME280;5216;54.602;18.356;2024-01-30T02:55:01;102834.53;;;4.98;57.08
10342;BME280;5216;54.602;18.356;2024-01-30T02:57:29;102832.78;;;4.97;57.24
10342;BME280;5216;54.602;18.356;2024-01-30T02:59:56;102833.63;;;4.97;57.32
10342;BME280;5216;54.602;18.356;2024-01-30T03:02:22;102837.22;;;4.96;57.47
10342;BME280;5216;54.602;18.356;2024-01-30T03:04:49;102830.13;;;4.97;57.46
10342;BME280;5216;54.602;18.356;2024-01-30T03:07:17;102832.78;;;4.97;57.41
10342;BME280;5216;54.602;18.356;2024-01-30T03:09:44;102830.88;;;5.02;57.85
10342;BME280;5216;54.602;18.356;2024-01-30T03:12:10;102829.13;;;5.01;57.45
10342;BME280;5216;54.602;18.356;2024-01-30T03:14:37;102830.09;;;4.98;57.28
10342;BME280;5216;54.602;18.356;2024-01-30T03:17:04;102833.75;;;4.94;57.55
10342;BME280;5216;54.602;18.356;2024-01-30T03:19:31;102839.09;;;4.93;57.33
10342;BME280;5216;54.602;18.356;2024-01-30T03:21:58;102826.91;;;4.87;57.19
10342;BME280;5216;54.602;18.356;2024-01-30T03:24:25;102834.03;;;4.85;57.56
10342;BME280;5216;54.602;18.356;2024-01-30T03:26:53;102831.34;;;4.87;57.86
10342;BME280;5216;54.602;18.356;2024-01-30T03:29:19;102827.78;;;4.88;57.95
10342;BME280;5216;54.602;18.356;2024-01-30T03:31:46;102836.56;;;4.90;58.08
10342;BME280;5216;54.602;18.356;2024-01-30T03:34:13;102827.69;;;4.91;58.08
10342;BME280;5216;54.602;18.356;2024-01-30T03:36:40;102829.44;;;4.92;57.84
10342;BME280;5216;54.602;18.356;2024-01-30T03:39:07;102831.06;;;4.96;58.14
10342;BME280;5216;54.602;18.356;2024-01-30T03:41:33;102830.13;;;4.97;58.18
10342;BME280;5216;54.602;18.356;2024-01-30T03:44:00;102820.47;;;4.96;57.65
10342;BME280;5216;54.602;18.356;2024-01-30T03:46:27;102819.53;;;4.97;57.67
10342;BME280;5216;54.602;18.356;2024-01-30T03:48:53;102813.41;;;4.95;58.05
10342;BME280;5216;54.602;18.356;2024-01-30T03:51:20;102816.88;;;4.97;58.32
10342;BME280;5216;54.602;18.356;2024-01-30T03:53:47;102814.97;;;5.02;58.30
10342;BME280;5216;54.602;18.356;2024-01-30T03:56:14;102817.53;;;5.03;57.93
10342;BME280;5216;54.602;18.356;2024-01-30T03:58:40;102810.53;;;5.02;57.54
10342;BME280;5216;54.602;18.356;2024-01-30T04:01:07;102811.59;;;4.97;57.47
10342;BME280;5216;54.602;18.356;2024-01-30T04:03:39;102807.34;;;4.91;57.40
10342;BME280;5216;54.602;18.356;2024-01-30T04:06:06;102805.63;;;4.90;57.68
10342;BME280;5216;54.602;18.356;2024-01-30T04:08:33;102804.56;;;4.96;58.13
10342;BME280;5216;54.602;18.356;2024-01-30T04:11:05;102805.38;;;4.98;58.51
10342;BME280;5216;54.602;18.356;2024-01-30T04:13:33;102808.72;;;5.03;58.23
10342;BME280;5216;54.602;18.356;2024-01-30T04:16:00;102809.56;;;5.05;57.80
10342;BME280;5216;54.602;18.356;2024-01-30T04:18:30;102808.78;;;5.01;57.96
10342;BME280;5216;54.602;18.356;2024-01-30T04:20:57;102814.19;;;4.98;58.02
10342;BME280;5216;54.602;18.356;2024-01-30T04:23:23;102818.72;;;4.95;58.05
10342;BME280;5216;54.602;18.356;2024-01-30T04:25:50;102814.47;;;4.89;57.83
10342;BME280;5216;54.602;18.356;2024-01-30T04:28:17;102819.06;;;4.84;57.58
10342;BME280;5216;54.602;18.356;2024-01-30T04:30:44;102824.59;;;4.77;57.74
10342;BME280;5216;54.602;18.356;2024-01-30T04:33:10;102825.63;;;4.72;57.96
10342;BME280;5216;54.602;18.356;2024-01-30T04:35:38;102818.69;;;4.68;58.17
10342;BME280;5216;54.602;18.356;2024-01-30T04:38:04;102821.50;;;4.63;58.15
10342;BME280;5216;54.602;18.356;2024-01-30T04:40:31;102813.72;;;4.59;58.26
10342;BME280;5216;54.602;18.356;2024-01-30T04:42:58;102815.41;;;4.60;58.18
10342;BME280;5216;54.602;18.356;2024-01-30T04:45:25;102820.81;;;4.57;58.25
10342;BME280;5216;54.602;18.356;2024-01-30T04:47:51;102810.28;;;4.55;58.36
10342;BME280;5216;54.602;18.356;2024-01-30T04:50:18;102809.47;;;4.53;58.64
10342;BME280;5216;54.602;18.356;2024-01-30T04:52:45;102816.38;;;4.57;58.81
10342;BME280;5216;54.602;18.356;2024-01-30T04:55:12;102820.75;;;4.58;58.99
10342;BME280;5216;54.602;18.356;2024-01-30T04:57:39;102831.16;;;4.64;59.38
10342;BME280;5216;54.602;18.356;2024-01-30T05:00:06;102824.00;;;4.68;59.28
10342;BME280;5216;54.602;18.356;2024-01-30T05:02:33;102819.47;;;4.71;59.21
10342;BME280;5216;54.602;18.356;2024-01-30T05:04:59;102814.00;;;4.77;59.02
10342;BME280;5216;54.602;18.356;2024-01-30T05:07:26;102821.72;;;4.84;58.92
10342;BME280;5216;54.602;18.356;2024-01-30T05:09:53;102815.56;;;4.84;58.82
10342;BME280;5216;54.602;18.356;2024-01-30T05:12:25;102814.66;;;4.83;58.78
10342;BME280;5216;54.602;18.356;2024-01-30T05:14:51;102813.91;;;4.80;58.53
10342;BME280;5216;54.602;18.356;2024-01-30T05:17:18;102812.94;;;4.82;58.48
10342;BME280;5216;54.602;18.356;2024-01-30T05:19:45;102815.63;;;4.81;58.71
10342;BME280;5216;54.602;18.356;2024-01-30T05:22:12;102818.31;;;4.79;58.81
10342;BME280;5216;54.602;18.356;2024-01-30T05:24:42;102815.56;;;4.84;59.12
10342;BME280;5216;54.602;18.356;2024-01-30T05:27:09;102808.31;;;4.89;59.13
10342;BME280;5216;54.602;18.356;2024-01-30T05:29:36;102816.06;;;4.95;59.52
10342;BME280;5216;54.602;18.356;2024-01-30T05:32:03;102821.97;;;5.03;59.61
10342;BME280;5216;54.602;18.356;2024-01-30T05:34:32;102824.41;;;5.10;59.51
10342;BME280;5216;54.602;18.356;2024-01-30T05:36:59;102821.69;;;5.12;58.89
10342;BME280;5216;54.602;18.356;2024-01-30T05:39:26;102823.41;;;5.12;58.95
10342;BME280;5216;54.602;18.356;2024-01-30T05:41:53;102821.38;;;5.20;58.91
10342;BME280;5216;54.602;18.356;2024-01-30T05:44:19;102822.16;;;5.24;58.96
10342;BME280;5216;54.602;18.356;2024-01-30T05:46:46;102820.44;;;5.23;58.85
10342;BME280;5216;54.602;18.356;2024-01-30T05:49:13;102831.78;;;5.26;58.59
10342;BME280;5216;54.602;18.356;2024-01-30T05:51:40;102838.84;;;5.27;58.90
10342;BME280;5216;54.602;18.356;2024-01-30T05:54:06;102829.06;;;5.29;59.20
10342;BME280;5216;54.602;18.356;2024-01-30T05:56:33;102825.47;;;5.30;58.99
10342;BME280;5216;54.602;18.356;2024-01-30T05:59:00;102817.44;;;5.33;59.33
10342;BME280;5216;54.602;18.356;2024-01-30T06:01:27;102814.53;;;5.41;59.33
10342;BME280;5216;54.602;18.356;2024-01-30T06:03:54;102816.13;;;5.46;59.12
10342;BME280;5216;54.602;18.356;2024-01-30T06:06:20;102827.53;;;5.48;59.19
10342;BME280;5216;54.602;18.356;2024-01-30T06:08:47;102823.03;;;5.50;58.87
10342;BME280;5216;54.602;18.356;2024-01-30T06:11:14;102817.53;;;5.56;59.34
10342;BME280;5216;54.602;18.356;2024-01-30T06:13:41;102812.06;;;5.60;58.72
10342;BME280;5216;54.602;18.356;2024-01-30T06:16:11;102818.22;;;5.61;58.61
10342;BME280;5216;54.602;18.356;2024-01-30T06:18:38;102808.63;;;5.57;58.10
10342;BME280;5216;54.602;18.356;2024-01-30T06:21:05;102815.91;;;5.52;57.76
10342;BME280;5216;54.602;18.356;2024-01-30T06:23:34;102818.84;;;5.43;57.95
10342;BME280;5216;54.602;18.356;2024-01-30T06:26:00;102816.44;;;5.36;57.70
10342;BME280;5216;54.602;18.356;2024-01-30T06:28:27;102822.72;;;5.33;58.31
10342;BME280;5216;54.602;18.356;2024-01-30T06:30:54;102829.88;;;5.31;58.21
10342;BME280;5216;54.602;18.356;2024-01-30T06:33:21;102810.59;;;5.26;58.23
10342;BME280;5216;54.602;18.356;2024-01-30T06:35:48;102806.09;;;5.28;58.48
10342;BME280;5216;54.602;18.356;2024-01-30T06:38:14;102811.41;;;5.28;58.22
10342;BME280;5216;54.602;18.356;2024-01-30T06:40:42;102808.81;;;5.27;58.57
10342;BME280;5216;54.602;18.356;2024-01-30T06:43:09;102811.47;;;5.27;58.47
10342;BME280;5216;54.602;18.356;2024-01-30T06:45:36;102814.16;;;5.25;58.81
10342;BME280;5216;54.602;18.356;2024-01-30T06:48:03;102803.66;;;5.22;58.39
10342;BME280;5216;54.602;18.356;2024-01-30T06:50:29;102804.63;;;5.20;58.66
10342;BME280;5216;54.602;18.356;2024-01-30T06:52:56;102809.16;;;5.16;58.57
10342;BME280;5216;54.602;18.356;2024-01-30T06:55:23;102809.16;;;5.16;58.93
10342;BME280;5216;54.602;18.356;2024-01-30T06:57:49;102803.75;;;5.19;58.95
10342;BME280;5216;54.602;18.356;2024-01-30T07:00:17;102811.59;;;5.22;59.32
10342;BME280;5216;54.602;18.356;2024-01-30T07:02:46;102808.94;;;5.22;58.66
10342;BME280;5216;54.602;18.356;2024-01-30T07:05:12;102800.19;;;5.20;58.94
10342;BME280;5216;54.602;18.356;2024-01-30T07:07:40;102816.00;;;5.23;59.18
10342;BME280;5216;54.602;18.356;2024-01-30T07:10:07;102810.78;;;5.20;58.95
10342;BME280;5216;54.602;18.356;2024-01-30T07:12:34;102806.56;;;5.15;59.18
10342;BME280;5216;54.602;18.356;2024-01-30T07:15:01;102810.03;;;5.17;59.14
10342;BME280;5216;54.602;18.356;2024-01-30T07:17:29;102814.44;;;5.16;59.11
10342;BME280;5216;54.602;18.356;2024-01-30T07:19:56;102818.13;;;5.12;58.67
10342;BME280;5216;54.602;18.356;2024-01-30T07:22:23;102820.84;;;5.11;58.82
10342;BME280;5216;54.602;18.356;2024-01-30T07:24:49;102827.19;;;5.06;59.08
10342;BME280;5216;54.602;18.356;2024-01-30T07:27:19;102825.44;;;5.05;59.84
10342;BME280;5216;54.602;18.356;2024-01-30T07:29:48;102826.34;;;5.05;59.50
10342;BME280;5216;54.602;18.356;2024-01-30T07:32:15;102829.69;;;5.10;60.00
10342;BME280;5216;54.602;18.356;2024-01-30T07:34:42;102817.22;;;5.13;59.33
10342;BME280;5216;54.602;18.356;2024-01-30T07:37:28;102821.69;;;5.12;59.85
10342;BME280;5216;54.602;18.356;2024-01-30T07:39:55;102831.44;;;5.11;59.79
10342;BME280;5216;54.602;18.356;2024-01-30T07:42:22;102824.25;;;5.14;59.77
10342;BME280;5216;54.602;18.356;2024-01-30T07:44:49;102827.00;;;5.12;59.45
10342;BME280;5216;54.602;18.356;2024-01-30T07:47:15;102818.25;;;5.10;59.72
10342;BME280;5216;54.602;18.356;2024-01-30T07:49:42;102818.81;;;5.19;59.66
10342;BME280;5216;54.602;18.356;2024-01-30T07:52:09;102830.16;;;5.22;60.05
10342;BME280;5216;54.602;18.356;2024-01-30T07:54:39;102825.66;;;5.24;60.23
10342;BME280;5216;54.602;18.356;2024-01-30T07:57:08;102829.06;;;5.29;60.47
10342;BME280;5216;54.602;18.356;2024-01-30T07:59:35;102826.19;;;5.35;60.66
10342;BME280;5216;54.602;18.356;2024-01-30T08:02:02;102838.34;;;5.42;60.26
10342;BME280;5216;54.602;18.356;2024-01-30T08:04:29;102818.84;;;5.43;60.11
10342;BME280;5216;54.602;18.356;2024-01-30T08:06:56;102823.03;;;5.50;59.54
10342;BME280;5216;54.602;18.356;2024-01-30T08:09:23;102822.09;;;5.51;59.38
10342;BME280;5216;54.602;18.356;2024-01-30T08:11:49;102818.66;;;5.49;59.20
10342;BME280;5216;54.602;18.356;2024-01-30T08:14:16;102833.78;;;5.46;59.66
10342;BME280;5216;54.602;18.356;2024-01-30T08:16:42;102822.44;;;5.42;59.65
10342;BME280;5216;54.602;18.356;2024-01-30T08:19:09;102821.66;;;5.39;59.76
10342;BME280;5216;54.602;18.356;2024-01-30T08:21:36;102819.81;;;5.41;59.75
10342;BME280;5216;54.602;18.356;2024-01-30T08:24:05;102819.72;;;5.44;60.02
10342;BME280;5216;54.602;18.356;2024-01-30T08:26:33;102813.59;;;5.42;60.37
10342;BME280;5216;54.602;18.356;2024-01-30T08:29:01;102807.34;;;5.44;60.03
10342;BME280;5216;54.602;18.356;2024-01-30T08:31:28;102817.78;;;5.48;60.17
10342;BME280;5216;54.602;18.356;2024-01-30T08:33:55;102808.81;;;5.52;60.29
10342;BME280;5216;54.602;18.356;2024-01-30T08:36:22;102810.53;;;5.53;59.75
10342;BME280;5216;54.602;18.356;2024-01-30T08:38:49;102807.78;;;5.56;60.22
10342;BME280;5216;54.602;18.356;2024-01-30T08:41:16;102814.66;;;5.62;60.09
10342;BME280;5216;54.602;18.356;2024-01-30T08:43:43;102818.94;;;5.66;60.02
10342;BME280;5216;54.602;18.356;2024-01-30T08:46:11;102822.28;;;5.71;60.41
10342;BME280;5216;54.602;18.356;2024-01-30T08:48:38;102815.03;;;5.77;60.40
10342;BME280;5216;54.602;18.356;2024-01-30T08:51:05;102816.63;;;5.83;59.90
10342;BME280;5216;54.602;18.356;2024-01-30T08:53:35;102805.16;;;5.81;60.36
10342;BME280;5216;54.602;18.356;2024-01-30T08:56:03;102812.00;;;5.87;59.75
10342;BME280;5216;54.602;18.356;2024-01-30T08:58:30;102814.44;;;5.93;59.81
10342;BME280;5216;54.602;18.356;2024-01-30T09:00:57;102815.16;;;5.98;60.17
10342;BME280;5216;54.602;18.356;2024-01-30T09:03:24;102810.56;;;6.02;59.72
10342;BME280;5216;54.602;18.356;2024-01-30T09:05:51;102799.03;;;6.03;59.64
10342;BME280;5216;54.602;18.356;2024-01-30T09:08:18;102804.19;;;6.07;60.04
10342;BME280;5216;54.602;18.356;2024-01-30T09:10:45;102813.72;;;6.13;60.10
10342;BME280;5216;54.602;18.356;2024-01-30T09:13:12;102805.69;;;6.14;60.12
10342;BME280;5216;54.602;18.356;2024-01-30T09:15:39;102813.50;;;6.19;59.82
10342;BME280;5216;54.602;18.356;2024-01-30T09:18:06;102803.63;;;6.22;59.98
10342;BME280;5216;54.602;18.356;2024-01-30T09:20:33;102803.63;;;6.22;59.77
10342;BME280;5216;54.602;18.356;2024-01-30T09:23:00;102799.94;;;6.26;60.08
10342;BME280;5216;54.602;18.356;2024-01-30T09:25:27;102796.25;;;6.30;59.35
10342;BME280;5216;54.602;18.356;2024-01-30T09:27:56;102792.66;;;6.31;60.00
10342;BME280;5216;54.602;18.356;2024-01-30T09:30:23;102793.50;;;6.33;59.41
10342;BME280;5216;54.602;18.356;2024-01-30T09:32:50;102794.16;;;6.38;59.56
10342;BME280;5216;54.602;18.356;2024-01-30T09:35:17;102795.78;;;6.42;59.20
10342;BME280;5216;54.602;18.356;2024-01-30T09:37:44;102797.38;;;6.46;59.08
10342;BME280;5216;54.602;18.356;2024-01-30T09:40:11;102800.81;;;6.49;59.31
10342;BME280;5216;54.602;18.356;2024-01-30T09:42:38;102784.91;;;6.48;58.83
10342;BME280;5216;54.602;18.356;2024-01-30T09:45:06;102793.59;;;6.53;58.98
10342;BME280;5216;54.602;18.356;2024-01-30T09:47:43;102790.00;;;6.54;59.31
10342;BME280;5216;54.602;18.356;2024-01-30T09:50:11;102781.91;;;6.57;59.35
10342;BME280;5216;54.602;18.356;2024-01-30T09:52:39;102775.66;;;6.58;58.84
10342;BME280;5216;54.602;18.356;2024-01-30T09:55:07;102784.44;;;6.59;59.37
10342;BME280;5216;54.602;18.356;2024-01-30T09:57:34;102774.69;;;6.60;59.07
10342;BME280;5216;54.602;18.356;2024-01-30T10:00:02;102786.00;;;6.65;59.66
10342;BME280;5216;54.602;18.356;2024-01-30T10:02:37;102769.25;;;6.63;59.47
10342;BME280;5216;54.602;18.356;2024-01-30T10:05:04;102776.41;;;6.61;59.51
10342;BME280;5216;54.602;18.356;2024-01-30T10:07:31;102778.78;;;6.68;59.27
10342;BME280;5216;54.602;18.356;2024-01-30T10:09:58;102766.28;;;6.70;58.92
10342;BME280;5216;54.602;18.356;2024-01-30T10:12:29;102771.47;;;6.73;59.27
10342;BME280;5216;54.602;18.356;2024-01-30T10:14:56;102758.13;;;6.75;59.44
10342;BME280;5216;54.602;18.356;2024-01-30T10:17:25;102759.88;;;6.76;59.05
10342;BME280;5216;54.602;18.356;2024-01-30T10:19:59;102762.41;;;6.79;59.02
10342;BME280;5216;54.602;18.356;2024-01-30T10:22:27;102764.06;;;6.81;59.66
10342;BME280;5216;54.602;18.356;2024-01-30T10:24:54;102762.25;;;6.83;59.03
10342;BME280;5216;54.602;18.356;2024-01-30T10:27:27;102752.41;;;6.85;59.19
10342;BME280;5216;54.602;18.356;2024-01-30T10:29:57;102752.31;;;6.87;59.17
10342;BME280;5216;54.602;18.356;2024-01-30T10:32:27;102761.84;;;6.92;59.32
10342;BME280;5216;54.602;18.356;2024-01-30T10:34:54;102751.09;;;6.95;59.37
10342;BME280;5216;54.602;18.356;2024-01-30T10:37:22;102738.72;;;6.94;59.24
10342;BME280;5216;54.602;18.356;2024-01-30T10:39:54;102749.00;;;7.03;59.36
10342;BME280;5216;54.602;18.356;2024-01-30T10:42:26;102738.38;;;7.03;59.22
10342;BME280;5216;54.602;18.356;2024-01-30T10:45:02;102737.31;;;7.07;58.97
10342;BME280;5216;54.602;18.356;2024-01-30T10:47:34;102739.97;;;7.07;59.25
10342;BME280;5216;54.602;18.356;2024-01-30T10:50:02;102742.47;;;7.10;59.68
10342;BME280;5216;54.602;18.356;2024-01-30T10:52:31;102737.06;;;7.13;59.48
10342;BME280;5216;54.602;18.356;2024-01-30T10:54:59;102737.84;;;7.15;59.13
10342;BME280;5216;54.602;18.356;2024-01-30T10:57:26;102733.28;;;7.18;59.55
10342;BME280;5216;54.602;18.356;2024-01-30T10:59:56;102731.41;;;7.20;59.14
10342;BME280;5216;54.602;18.356;2024-01-30T11:02:24;102730.41;;;7.23;59.14
10342;BME280;5216;54.602;18.356;2024-01-30T11:08:22;102726.63;;;7.28;59.11
10342;BME280;5216;54.602;18.356;2024-01-30T11:10:49;102721.22;;;7.30;59.36
10342;BME280;5216;54.602;18.356;2024-01-30T11:13:16;102719.38;;;7.32;59.65
10342;BME280;5216;54.602;18.356;2024-01-30T11:15:43;102715.72;;;7.34;59.55
10342;BME280;5216;54.602;18.356;2024-01-30T11:18:10;102706.75;;;7.36;59.70
10342;BME280;5216;54.602;18.356;2024-01-30T11:20:37;102701.44;;;7.36;59.63
10342;BME280;5216;54.602;18.356;2024-01-30T11:23:03;102701.16;;;7.42;59.65
10342;BME280;5216;54.602;18.356;2024-01-30T11:25:34;102704.75;;;7.41;59.81
10342;BME280;5216;54.602;18.356;2024-01-30T11:28:01;102677.91;;;7.47;59.31
10342;BME280;5216;54.602;18.356;2024-01-30T11:30:29;102687.59;;;7.48;59.74
10342;BME280;5216;54.602;18.356;2024-01-30T11:33:09;102679.47;;;7.51;59.26
10342;BME280;5216;54.602;18.356;2024-01-30T11:35:42;102682.94;;;7.53;59.72
10342;BME280;5216;54.602;18.356;2024-01-30T11:38:13;102677.63;;;7.53;59.53
10342;BME280;5216;54.602;18.356;2024-01-30T11:40:40;102667.69;;;7.57;59.53
10342;BME280;5216;54.602;18.356;2024-01-30T11:43:08;102666.69;;;7.59;59.24
10342;BME280;5216;54.602;18.356;2024-01-30T11:45:38;102670.16;;;7.61;59.46
10342;BME280;5216;54.602;18.356;2024-01-30T11:48:06;102664.69;;;7.64;59.67
10342;BME280;5216;54.602;18.356;2024-01-30T11:50:34;102669.03;;;7.67;59.65
10342;BME280;5216;54.602;18.356;2024-01-30T11:53:01;102671.59;;;7.68;59.73
10342;BME280;5216;54.602;18.356;2024-01-30T11:55:31;102661.84;;;7.69;59.44
10342;BME280;5216;54.602;18.356;2024-01-30T11:58:02;102673.19;;;7.72;59.86
10342;BME280;5216;54.602;18.356;2024-01-30T12:00:29;102666.94;;;7.73;59.37
10342;BME280;5216;54.602;18.356;2024-01-30T12:02:58;102662.53;;;7.72;59.48
10342;BME280;5216;54.602;18.356;2024-01-30T12:05:29;102660.53;;;7.77;59.39
10342;BME280;5216;54.602;18.356;2024-01-30T12:07:56;102654.38;;;7.76;59.53
10342;BME280;5216;54.602;18.356;2024-01-30T12:10:27;102653.34;;;7.79;59.73
10342;BME280;5216;54.602;18.356;2024-01-30T12:12:54;102649.63;;;7.83;59.63
10342;BME280;5216;54.602;18.356;2024-01-30T12:15:22;102645.09;;;7.85;59.53
10342;BME280;5216;54.602;18.356;2024-01-30T12:17:49;102642.28;;;7.88;59.90
10342;BME280;5216;54.602;18.356;2024-01-30T12:20:19;102641.28;;;7.90;59.64
10342;BME280;5216;54.602;18.356;2024-01-30T12:22:49;102642.94;;;7.93;59.49
10342;BME280;5216;54.602;18.356;2024-01-30T12:25:17;102637.53;;;7.94;59.77
10342;BME280;5216;54.602;18.356;2024-01-30T12:27:49;102641.00;;;7.96;59.70
10342;BME280;5216;54.602;18.356;2024-01-30T12:30:20;102646.16;;;7.99;59.68
10342;BME280;5216;54.602;18.356;2024-01-30T12:32:51;102631.34;;;7.94;59.50
10342;BME280;5216;54.602;18.356;2024-01-30T12:35:19;102641.72;;;8.00;59.52
10342;BME280;5216;54.602;18.356;2024-01-30T12:37:48;102635.44;;;8.01;59.48
10342;BME280;5216;54.602;18.356;2024-01-30T12:40:18;102645.88;;;8.05;59.94
10342;BME280;5216;54.602;18.356;2024-01-30T12:42:46;102638.66;;;8.07;59.90
10342;BME280;5216;54.602;18.356;2024-01-30T12:45:17;102636.91;;;8.07;59.68
10342;BME280;5216;54.602;18.356;2024-01-30T12:47:49;102643.03;;;8.09;59.91
10342;BME280;5216;54.602;18.356;2024-01-30T12:50:16;102645.53;;;8.12;59.75
10342;BME280;5216;54.602;18.356;2024-01-30T12:52:44;102638.44;;;8.13;59.73
10342;BME280;5216;54.602;18.356;2024-01-30T12:55:15;102637.72;;;8.09;59.88
10342;BME280;5216;54.602;18.356;2024-01-30T12:57:42;102647.06;;;8.18;60.11
10342;BME280;5216;54.602;18.356;2024-01-30T13:00:09;102638.16;;;8.19;59.95
10342;BME280;5216;54.602;18.356;2024-01-30T13:02:36;102625.81;;;8.16;59.93
10342;BME280;5216;54.602;18.356;2024-01-30T13:05:04;102632.66;;;8.22;59.87